sensor_id;sensor_type;location;lat;lon;timestamp;pressure;altitude;pressure_sealevel;temperature;humidity
47366;BME280;33105;47.964;7.982;2023-04-25T00:02:12;96127.03;;;8.57;67.03
47366;BME280;33105;47.964;7.982;2023-04-25T00:05:14;96134.88;;;8.48;67.05
47366;BME280;33105;47.964;7.982;2023-04-25T00:08:18;96135.41;;;8.45;65.93
47366;BME280;33105;47.964;7.982;2023-04-25T00:11:19;96152.00;;;8.43;66.12
47366;BME280;33105;47.964;7.982;2023-04-25T00:14:20;96152.09;;;8.59;65.89
47366;BME280;33105;47.964;7.982;2023-04-25T00:17:22;96147.88;;;8.36;67.45
47366;BME280;33105;47.964;7.982;2023-04-25T00:20:25;96153.44;;;8.19;68.35
47366;BME280;33105;47.964;7.982;2023-04-25T00:23:26;96167.53;;;8.11;70.14
47366;BME280;33105;47.964;7.982;2023-04-25T00:26:27;96157.69;;;8.05;69.94
47366;BME280;33105;47.964;7.982;2023-04-25T00:29:28;96164.78;;;8.06;69.73
47366;BME280;33105;47.964;7.982;2023-04-25T00:32:30;96151.22;;;7.79;70.14
47366;BME280;33105;47.964;7.982;2023-04-25T00:35:32;96144.72;;;7.80;70.57
47366;BME280;33105;47.964;7.982;2023-04-25T00:38:33;96155.75;;;7.68;71.60
47366;BME280;33105;47.964;7.982;2023-04-25T00:41:34;96154.78;;;7.79;70.33
47366;BME280;33105;47.964;7.982;2023-04-25T00:44:36;96155.69;;;7.90;70.93
47366;BME280;33105;47.964;7.982;2023-04-25T00:47:38;96159.09;;;7.75;72.62
47366;BME280;33105;47.964;7.982;2023-04-25T00:50:41;96151.69;;;7.71;72.54
47366;BME280;33105;47.964;7.982;2023-04-25T00:53:44;96143.91;;;7.79;71.36
47366;BME280;33105;47.964;7.982;2023-04-25T00:56:46;96140.44;;;7.57;71.97
47366;BME280;33105;47.964;7.982;2023-04-25T00:59:47;96134.50;;;7.60;73.48
47366;BME280;33105;47.964;7.982;2023-04-25T01:02:49;96132.28;;;7.57;72.11
47366;BME280;33105;47.964;7.982;2023-04-25T01:05:51;96129.22;;;7.48;73.44
47366;BME280;33105;47.964;7.982;2023-04-25T01:08:52;96133.00;;;7.47;72.65
47366;BME280;33105;47.964;7.982;2023-04-25T01:11:54;96129.69;;;7.40;74.27
47366;BME280;33105;47.964;7.982;2023-04-25T01:14:55;96122.31;;;7.36;73.77
47366;BME280;33105;47.964;7.982;2023-04-25T01:17:57;96129.28;;;7.27;75.03
47366;BME280;33105;47.964;7.982;2023-04-25T01:21:12;96131.03;;;7.11;74.63
47366;BME280;33105;47.964;7.982;2023-04-25T01:24:14;96132.09;;;7.10;74.42
47366;BME280;33105;47.964;7.982;2023-04-25T01:27:15;96125.59;;;7.11;76.90
47366;BME280;33105;47.964;7.982;2023-04-25T01:30:17;96123.69;;;7.11;74.86
47366;BME280;33105;47.964;7.982;2023-04-25T01:33:19;96120.53;;;6.98;75.13
47366;BME280;33105;47.964;7.982;2023-04-25T01:36:21;96115.88;;;6.93;75.53
47366;BME280;33105;47.964;7.982;2023-04-25T01:39:23;96123.16;;;6.88;74.99
47366;BME280;33105;47.964;7.982;2023-04-25T01:42:24;96115.34;;;6.96;76.68
47366;BME280;33105;47.964;7.982;2023-04-25T01:45:26;96116.16;;;6.92;76.64
47366;BME280;33105;47.964;7.982;2023-04-25T01:48:28;96117.59;;;6.77;76.04
47366;BME280;33105;47.964;7.982;2023-04-25T01:51:30;96117.66;;;6.82;76.01
47366;BME280;33105;47.964;7.982;2023-04-25T01:54:31;96113.16;;;6.93;76.57
47366;BME280;33105;47.964;7.982;2023-04-25T01:57:33;96111.22;;;6.89;77.57
47366;BME280;33105;47.964;7.982;2023-04-25T02:00:36;96113.25;;;6.76;78.27
47366;BME280;33105;47.964;7.982;2023-04-25T02:03:39;96106.75;;;6.77;79.02
47366;BME280;33105;47.964;7.982;2023-04-25T02:06:45;96116.03;;;6.81;78.62
47366;BME280;33105;47.964;7.982;2023-04-25T02:09:47;96118.47;;;6.83;78.46
47366;BME280;33105;47.964;7.982;2023-04-25T02:12:48;96109.53;;;6.82;80.39
47366;BME280;33105;47.964;7.982;2023-04-25T02:15:57;96105.72;;;6.83;80.90
47366;BME280;33105;47.964;7.982;2023-04-25T02:18:59;96107.44;;;6.90;78.82
47366;BME280;33105;47.964;7.982;2023-04-25T02:22:01;96093.91;;;7.22;77.94
47366;BME280;33105;47.964;7.982;2023-04-25T02:25:02;96096.41;;;7.01;78.28
47366;BME280;33105;47.964;7.982;2023-04-25T02:28:05;96099.03;;;6.91;79.07
47366;BME280;33105;47.964;7.982;2023-04-25T02:31:06;96086.13;;;7.03;78.46
47366;BME280;33105;47.964;7.982;2023-04-25T02:34:07;96086.16;;;6.81;79.27
47366;BME280;33105;47.964;7.982;2023-04-25T02:37:11;96088.63;;;6.83;79.51
47366;BME280;33105;47.964;7.982;2023-04-25T02:40:12;96092.25;;;6.94;78.62
47366;BME280;33105;47.964;7.982;2023-04-25T02:43:13;96092.47;;;6.87;78.16
47366;BME280;33105;47.964;7.982;2023-04-25T02:46:14;96093.16;;;6.77;80.09
47366;BME280;33105;47.964;7.982;2023-04-25T02:49:16;96097.84;;;6.82;81.14
47366;BME280;33105;47.964;7.982;2023-04-25T02:52:17;96093.66;;;6.74;80.76
47366;BME280;33105;47.964;7.982;2023-04-25T02:55:22;96087.56;;;6.62;80.82
47366;BME280;33105;47.964;7.982;2023-04-25T02:58:23;96079.91;;;6.81;79.61
47366;BME280;33105;47.964;7.982;2023-04-25T03:01:26;96075.25;;;6.55;78.74
47366;BME280;33105;47.964;7.982;2023-04-25T03:04:28;96080.19;;;6.36;79.40
47366;BME280;33105;47.964;7.982;2023-04-25T03:07:29;96084.28;;;6.38;79.72
47366;BME280;33105;47.964;7.982;2023-04-25T03:10:31;96089.81;;;6.27;80.16
47366;BME280;33105;47.964;7.982;2023-04-25T03:13:36;96069.75;;;6.28;80.41
47366;BME280;33105;47.964;7.982;2023-04-25T03:16:37;96081.25;;;6.13;79.72
47366;BME280;33105;47.964;7.982;2023-04-25T03:19:38;96072.97;;;6.25;80.14
47366;BME280;33105;47.964;7.982;2023-04-25T03:22:39;96076.25;;;6.27;80.23
47366;BME280;33105;47.964;7.982;2023-04-25T03:25:41;96073.19;;;6.18;80.13
47366;BME280;33105;47.964;7.982;2023-04-25T03:28:42;96065.81;;;6.35;80.38
47366;BME280;33105;47.964;7.982;2023-04-25T03:31:43;96058.47;;;6.36;80.42
47366;BME280;33105;47.964;7.982;2023-04-25T03:34:44;96054.13;;;6.35;79.91
47366;BME280;33105;47.964;7.982;2023-04-25T03:37:46;96049.22;;;6.32;79.88
47366;BME280;33105;47.964;7.982;2023-04-25T03:40:52;96043.78;;;6.10;80.31
47366;BME280;33105;47.964;7.982;2023-04-25T03:43:58;96045.34;;;6.28;80.84
47366;BME280;33105;47.964;7.982;2023-04-25T03:46:59;96034.94;;;6.20;80.48
47366;BME280;33105;47.964;7.982;2023-04-25T03:50:00;96034.66;;;6.16;80.23
47366;BME280;33105;47.964;7.982;2023-04-25T03:53:04;96042.13;;;6.31;79.47
47366;BME280;33105;47.964;7.982;2023-04-25T03:56:14;96030.41;;;6.25;80.96
47366;BME280;33105;47.964;7.982;2023-04-25T03:59:16;96028.41;;;6.16;80.34
47366;BME280;33105;47.964;7.982;2023-04-25T04:02:18;96016.00;;;6.03;81.58
47366;BME280;33105;47.964;7.982;2023-04-25T04:05:19;96017.09;;;6.02;82.08
47366;BME280;33105;47.964;7.982;2023-04-25T04:08:28;96012.25;;;5.87;80.80
47366;BME280;33105;47.964;7.982;2023-04-25T04:11:29;96019.88;;;5.68;81.18
47366;BME280;33105;47.964;7.982;2023-04-25T04:14:32;96015.28;;;5.52;81.38
47366;BME280;33105;47.964;7.982;2023-04-25T04:17:33;96020.03;;;5.62;81.56
47366;BME280;33105;47.964;7.982;2023-04-25T04:20:35;96023.31;;;5.64;81.25
47366;BME280;33105;47.964;7.982;2023-04-25T04:23:36;96023.66;;;5.51;81.12
47366;BME280;33105;47.964;7.982;2023-04-25T04:26:38;96017.50;;;5.38;81.42
47366;BME280;33105;47.964;7.982;2023-04-25T04:30:02;96020.78;;;5.40;81.35
47366;BME280;33105;47.964;7.982;2023-04-25T04:33:13;96015.72;;;5.44;81.34
47366;BME280;33105;47.964;7.982;2023-04-25T04:36:16;96017.91;;;5.47;82.51
47366;BME280;33105;47.964;7.982;2023-04-25T04:39:21;96017.31;;;5.62;81.40
47366;BME280;33105;47.964;7.982;2023-04-25T04:42:33;96022.75;;;5.62;81.30
47366;BME280;33105;47.964;7.982;2023-04-25T04:45:45;96018.88;;;5.58;81.05
47366;BME280;33105;47.964;7.982;2023-04-25T04:49:15;96020.03;;;5.62;81.37
47366;BME280;33105;47.964;7.982;2023-04-25T04:52:50;96024.19;;;5.69;80.87
47366;BME280;33105;47.964;7.982;2023-04-25T04:56:20;96026.47;;;5.77;80.35
47366;BME280;33105;47.964;7.982;2023-04-25T04:59:53;96028.63;;;5.92;79.73
47366;BME280;33105;47.964;7.982;2023-04-25T05:03:20;96033.47;;;5.90;79.96
47366;BME280;33105;47.964;7.982;2023-04-25T05:06:36;96031.88;;;5.94;79.77
47366;BME280;33105;47.964;7.982;2023-04-25T05:09:49;96030.53;;;6.13;78.73
47366;BME280;33105;47.964;7.982;2023-04-25T05:13:17;96031.34;;;5.92;79.77
47366;BME280;33105;47.964;7.982;2023-04-25T05:16:35;96037.06;;;5.79;79.97
47366;BME280;33105;47.964;7.982;2023-04-25T05:19:56;96033.03;;;5.98;79.22
47366;BME280;33105;47.964;7.982;2023-04-25T05:23:13;96029.53;;;6.41;77.26
47366;BME280;33105;47.964;7.982;2023-04-25T05:26:33;96029.47;;;6.14;79.82
47366;BME280;33105;47.964;7.982;2023-04-25T05:30:07;96037.38;;;5.99;80.21
47366;BME280;33105;47.964;7.982;2023-04-25T05:33:45;96042.47;;;6.34;80.11
47366;BME280;33105;47.964;7.982;2023-04-25T05:36:47;96044.34;;;6.34;80.17
47366;BME280;33105;47.964;7.982;2023-04-25T05:39:50;96048.06;;;6.28;82.16
47366;BME280;33105;47.964;7.982;2023-04-25T05:43:09;96053.81;;;6.31;82.32
47366;BME280;33105;47.964;7.982;2023-04-25T05:46:37;96052.50;;;6.34;83.03
47366;BME280;33105;47.964;7.982;2023-04-25T05:49:54;96056.34;;;6.38;84.26
47366;BME280;33105;47.964;7.982;2023-04-25T05:53:15;96052.56;;;6.39;83.92
47366;BME280;33105;47.964;7.982;2023-04-25T05:56:18;96048.56;;;6.46;80.73
47366;BME280;33105;47.964;7.982;2023-04-25T05:59:21;96055.53;;;6.37;82.33
47366;BME280;33105;47.964;7.982;2023-04-25T06:02:22;96071.41;;;6.29;81.99
47366;BME280;33105;47.964;7.982;2023-04-25T06:05:24;96080.34;;;6.07;82.75
47366;BME280;33105;47.964;7.982;2023-04-25T06:08:26;96079.94;;;5.99;82.72
47366;BME280;33105;47.964;7.982;2023-04-25T06:11:27;96087.59;;;5.85;83.77
47366;BME280;33105;47.964;7.982;2023-04-25T06:14:28;96098.25;;;5.75;84.34
47366;BME280;33105;47.964;7.982;2023-04-25T06:17:30;96099.00;;;5.54;86.26
47366;BME280;33105;47.964;7.982;2023-04-25T06:20:31;96101.38;;;5.50;86.97
47366;BME280;33105;47.964;7.982;2023-04-25T06:23:34;96108.06;;;5.42;88.89
47366;BME280;33105;47.964;7.982;2023-04-25T06:26:41;96110.53;;;5.44;90.11
47366;BME280;33105;47.964;7.982;2023-04-25T06:29:42;96118.38;;;5.45;91.16
47366;BME280;33105;47.964;7.982;2023-04-25T06:32:44;96115.16;;;5.32;89.97
47366;BME280;33105;47.964;7.982;2023-04-25T06:35:45;96114.84;;;5.28;90.64
47366;BME280;33105;47.964;7.982;2023-04-25T06:38:48;96111.53;;;5.26;91.38
47366;BME280;33105;47.964;7.982;2023-04-25T06:41:49;96127.06;;;5.14;92.08
47366;BME280;33105;47.964;7.982;2023-04-25T06:45:15;96129.63;;;4.92;92.81
47366;BME280;33105;47.964;7.982;2023-04-25T06:48:16;96128.31;;;4.95;92.95
47366;BME280;33105;47.964;7.982;2023-04-25T06:51:17;96132.75;;;5.01;93.17
47366;BME280;33105;47.964;7.982;2023-04-25T06:54:19;96126.28;;;5.02;94.06
47366;BME280;33105;47.964;7.982;2023-04-25T06:57:30;96133.91;;;5.05;94.05
47366;BME280;33105;47.964;7.982;2023-04-25T07:00:42;96137.09;;;5.02;94.19
47366;BME280;33105;47.964;7.982;2023-04-25T07:03:43;96129.69;;;5.26;92.17
47366;BME280;33105;47.964;7.982;2023-04-25T07:06:50;96136.81;;;5.15;94.53
47366;BME280;33105;47.964;7.982;2023-04-25T07:09:55;96141.66;;;5.13;94.23
47366;BME280;33105;47.964;7.982;2023-04-25T07:12:56;96142.06;;;5.67;93.34
47366;BME280;33105;47.964;7.982;2023-04-25T07:15:58;96144.41;;;5.46;92.39
47366;BME280;33105;47.964;7.982;2023-04-25T07:19:00;96147.28;;;5.57;93.52
47366;BME280;33105;47.964;7.982;2023-04-25T07:22:01;96151.78;;;5.51;92.61
47366;BME280;33105;47.964;7.982;2023-04-25T07:25:04;96155.75;;;5.60;93.28
47366;BME280;33105;47.964;7.982;2023-04-25T07:28:05;96159.44;;;5.54;94.82
47366;BME280;33105;47.964;7.982;2023-04-25T07:31:06;96159.59;;;5.47;94.95
47366;BME280;33105;47.964;7.982;2023-04-25T07:34:08;96163.19;;;5.36;96.06
47366;BME280;33105;47.964;7.982;2023-04-25T07:37:10;96158.19;;;5.45;96.08
47366;BME280;33105;47.964;7.982;2023-04-25T07:40:22;96181.84;;;5.21;96.90
47366;BME280;33105;47.964;7.982;2023-04-25T07:43:27;96172.53;;;5.29;97.29
47366;BME280;33105;47.964;7.982;2023-04-25T07:46:32;96181.38;;;5.24;97.65
47366;BME280;33105;47.964;7.982;2023-04-25T07:49:35;96191.03;;;5.20;98.43
47366;BME280;33105;47.964;7.982;2023-04-25T07:52:36;96194.88;;;5.36;98.47
47366;BME280;33105;47.964;7.982;2023-04-25T07:55:47;96196.88;;;5.12;99.73
47366;BME280;33105;47.964;7.982;2023-04-25T07:58:51;96198.09;;;5.21;100.00
47366;BME280;33105;47.964;7.982;2023-04-25T08:01:56;96207.00;;;5.33;100.00
47366;BME280;33105;47.964;7.982;2023-04-25T08:04:59;96215.81;;;5.40;100.00
47366;BME280;33105;47.964;7.982;2023-04-25T08:08:00;96233.75;;;5.30;100.00
47366;BME280;33105;47.964;7.982;2023-04-25T08:11:03;96230.75;;;5.15;100.00
47366;BME280;33105;47.964;7.982;2023-04-25T08:14:05;96247.53;;;5.28;100.00
47366;BME280;33105;47.964;7.982;2023-04-25T08:17:07;96241.16;;;5.34;100.00
47366;BME280;33105;47.964;7.982;2023-04-25T08:20:14;96253.28;;;5.43;100.00
47366;BME280;33105;47.964;7.982;2023-04-25T08:23:16;96254.50;;;5.53;100.00
47366;BME280;33105;47.964;7.982;2023-04-25T08:26:34;96260.94;;;5.63;100.00
47366;BME280;33105;47.964;7.982;2023-04-25T08:29:35;96266.72;;;5.67;100.00
47366;BME280;33105;47.964;7.982;2023-04-25T08:32:36;96270.16;;;5.79;100.00
47366;BME280;33105;47.964;7.982;2023-04-25T08:36:05;96280.19;;;5.78;100.00
47366;BME280;33105;47.964;7.982;2023-04-25T08:39:07;96286.69;;;5.49;100.00
47366;BME280;33105;47.964;7.982;2023-04-25T08:42:15;96277.81;;;5.54;100.00
47366;BME280;33105;47.964;7.982;2023-04-25T08:45:17;96285.38;;;5.52;100.00
47366;BME280;33105;47.964;7.982;2023-04-25T08:48:18;96283.59;;;5.57;100.00
47366;BME280;33105;47.964;7.982;2023-04-25T08:51:23;96287.41;;;5.73;100.00
47366;BME280;33105;47.964;7.982;2023-04-25T08:54:27;96302.00;;;5.72;100.00
47366;BME280;33105;47.964;7.982;2023-04-25T08:57:31;96291.16;;;5.72;100.00
47366;BME280;33105;47.964;7.982;2023-04-25T09:00:32;96298.47;;;5.71;100.00
47366;BME280;33105;47.964;7.982;2023-04-25T09:03:34;96312.09;;;5.88;100.00
47366;BME280;33105;47.964;7.982;2023-04-25T09:06:36;96316.66;;;5.99;100.00
47366;BME280;33105;47.964;7.982;2023-04-25T09:09:38;96322.13;;;5.88;100.00
47366;BME280;33105;47.964;7.982;2023-04-25T09:12:40;96318.06;;;6.02;100.00
47366;BME280;33105;47.964;7.982;2023-04-25T09:15:51;96323.06;;;5.93;100.00
47366;BME280;33105;47.964;7.982;2023-04-25T09:19:21;96327.22;;;6.12;100.00
47366;BME280;33105;47.964;7.982;2023-04-25T09:22:22;96331.91;;;6.17;100.00
47366;BME280;33105;47.964;7.982;2023-04-25T09:25:24;96334.38;;;6.19;100.00
47366;BME280;33105;47.964;7.982;2023-04-25T09:28:26;96339.59;;;6.08;100.00
47366;BME280;33105;47.964;7.982;2023-04-25T09:31:28;96341.41;;;6.20;100.00
47366;BME280;33105;47.964;7.982;2023-04-25T09:34:48;96347.22;;;6.40;100.00
47366;BME280;33105;47.964;7.982;2023-04-25T09:37:51;96342.44;;;6.47;100.00
47366;BME280;33105;47.964;7.982;2023-04-25T09:41:11;96342.50;;;6.19;100.00
47366;BME280;33105;47.964;7.982;2023-04-25T09:44:23;96350.53;;;6.13;100.00
47366;BME280;33105;47.964;7.982;2023-04-25T09:47:25;96357.81;;;5.96;100.00
47366;BME280;33105;47.964;7.982;2023-04-25T09:50:28;96375.31;;;5.89;100.00
47366;BME280;33105;47.964;7.982;2023-04-25T09:53:44;96374.97;;;6.13;100.00
47366;BME280;33105;47.964;7.982;2023-04-25T10:00:14;96377.47;;;6.48;100.00
47366;BME280;33105;47.964;7.982;2023-04-25T10:03:17;96378.47;;;6.42;100.00
47366;BME280;33105;47.964;7.982;2023-04-25T10:06:30;96381.09;;;6.37;100.00
47366;BME280;33105;47.964;7.982;2023-04-25T10:09:33;96379.38;;;6.81;100.00
47366;BME280;33105;47.964;7.982;2023-04-25T10:12:37;96380.78;;;6.84;100.00
47366;BME280;33105;47.964;7.982;2023-04-25T10:15:41;96385.03;;;6.97;100.00
47366;BME280;33105;47.964;7.982;2023-04-25T10:19:01;96389.97;;;7.00;100.00
47366;BME280;33105;47.964;7.982;2023-04-25T10:25:20;96390.13;;;7.10;100.00
47366;BME280;33105;47.964;7.982;2023-04-25T10:28:21;96385.13;;;7.02;100.00
47366;BME280;33105;47.964;7.982;2023-04-25T10:31:22;96383.06;;;6.59;100.00
47366;BME280;33105;47.964;7.982;2023-04-25T10:34:37;96392.06;;;6.31;100.00
47366;BME280;33105;47.964;7.982;2023-04-25T10:38:02;96385.59;;;6.32;100.00
47366;BME280;33105;47.964;7.982;2023-04-25T10:41:06;96393.34;;;6.11;100.00
47366;BME280;33105;47.964;7.982;2023-04-25T10:44:09;96389.22;;;6.54;100.00
47366;BME280;33105;47.964;7.982;2023-04-25T10:47:10;96389.66;;;6.63;100.00
47366;BME280;33105;47.964;7.982;2023-04-25T10:50:12;96386.13;;;6.62;100.00
47366;BME280;33105;47.964;7.982;2023-04-25T10:53:14;96382.00;;;6.43;100.00
47366;BME280;33105;47.964;7.982;2023-04-25T10:56:19;96391.75;;;6.44;100.00
47366;BME280;33105;47.964;7.982;2023-04-25T10:59:24;96393.63;;;5.98;100.00
47366;BME280;33105;47.964;7.982;2023-04-25T11:02:26;96394.09;;;5.95;100.00
47366;BME280;33105;47.964;7.982;2023-04-25T11:05:34;96398.41;;;5.91;100.00
47366;BME280;33105;47.964;7.982;2023-04-25T11:08:48;96408.00;;;5.99;100.00
47366;BME280;33105;47.964;7.982;2023-04-25T11:11:54;96405.16;;;6.34;100.00
47366;BME280;33105;47.964;7.982;2023-04-25T11:15:00;96409.28;;;6.08;100.00
47366;BME280;33105;47.964;7.982;2023-04-25T11:18:02;96405.41;;;6.32;100.00
47366;BME280;33105;47.964;7.982;2023-04-25T11:21:04;96395.25;;;6.73;100.00
47366;BME280;33105;47.964;7.982;2023-04-25T11:24:05;96396.25;;;7.39;100.00
47366;BME280;33105;47.964;7.982;2023-04-25T11:27:06;96386.34;;;7.71;100.00
47366;BME280;33105;47.964;7.982;2023-04-25T11:30:14;96379.53;;;7.91;100.00
47366;BME280;33105;47.964;7.982;2023-04-25T11:33:17;96375.91;;;8.07;100.00
47366;BME280;33105;47.964;7.982;2023-04-25T11:36:18;96367.97;;;8.54;100.00
47366;BME280;33105;47.964;7.982;2023-04-25T11:39:20;96365.75;;;8.83;100.00
47366;BME280;33105;47.964;7.982;2023-04-25T11:42:22;96360.22;;;8.73;100.00
47366;BME280;33105;47.964;7.982;2023-04-25T11:45:23;96356.22;;;8.80;100.00
47366;BME280;33105;47.964;7.982;2023-04-25T11:48:24;96359.03;;;8.96;100.00
47366;BME280;33105;47.964;7.982;2023-04-25T11:51:26;96358.47;;;8.89;100.00
47366;BME280;33105;47.964;7.982;2023-04-25T11:54:28;96358.53;;;8.99;100.00
47366;BME280;33105;47.964;7.982;2023-04-25T11:57:31;96371.34;;;8.12;100.00
47366;BME280;33105;47.964;7.982;2023-04-25T12:00:32;96373.00;;;7.92;100.00
47366;BME280;33105;47.964;7.982;2023-04-25T12:03:33;96379.16;;;7.82;100.00
47366;BME280;33105;47.964;7.982;2023-04-25T12:06:37;96382.69;;;7.82;100.00
47366;BME280;33105;47.964;7.982;2023-04-25T12:09:39;96390.47;;;7.74;100.00
47366;BME280;33105;47.964;7.982;2023-04-25T12:12:44;96404.19;;;7.84;100.00
47366;BME280;33105;47.964;7.982;2023-04-25T12:15:45;96410.63;;;7.56;100.00
47366;BME280;33105;47.964;7.982;2023-04-25T12:18:47;96412.31;;;7.40;100.00
47366;BME280;33105;47.964;7.982;2023-04-25T12:21:49;96423.25;;;7.45;100.00
47366;BME280;33105;47.964;7.982;2023-04-25T12:24:50;96425.16;;;7.28;100.00
47366;BME280;33105;47.964;7.982;2023-04-25T12:27:54;96420.88;;;7.32;100.00
47366;BME280;33105;47.964;7.982;2023-04-25T12:31:06;96416.16;;;7.83;100.00
47366;BME280;33105;47.964;7.982;2023-04-25T12:34:07;96418.34;;;8.08;100.00
47366;BME280;33105;47.964;7.982;2023-04-25T12:37:09;96414.16;;;8.22;100.00
47366;BME280;33105;47.964;7.982;2023-04-25T12:40:10;96411.91;;;8.36;100.00
47366;BME280;33105;47.964;7.982;2023-04-25T12:43:11;96406.34;;;8.31;100.00
47366;BME280;33105;47.964;7.982;2023-04-25T12:46:12;96410.00;;;7.93;100.00
47366;BME280;33105;47.964;7.982;2023-04-25T12:49:14;96404.63;;;8.73;100.00
47366;BME280;33105;47.964;7.982;2023-04-25T12:52:15;96399.78;;;8.80;100.00
47366;BME280;33105;47.964;7.982;2023-04-25T12:55:17;96400.81;;;8.74;100.00
47366;BME280;33105;47.964;7.982;2023-04-25T12:58:19;96402.06;;;8.94;100.00
47366;BME280;33105;47.964;7.982;2023-04-25T13:01:21;96402.78;;;8.79;100.00
47366;BME280;33105;47.964;7.982;2023-04-25T13:04:22;96404.41;;;8.80;100.00
47366;BME280;33105;47.964;7.982;2023-04-25T13:07:24;96410.41;;;8.28;100.00
47366;BME280;33105;47.964;7.982;2023-04-25T13:10:26;96400.50;;;8.71;100.00
47366;BME280;33105;47.964;7.982;2023-04-25T13:13:27;96393.06;;;8.93;100.00
47366;BME280;33105;47.964;7.982;2023-04-25T13:16:29;96396.97;;;9.39;100.00
47366;BME280;33105;47.964;7.982;2023-04-25T13:19:30;96389.06;;;10.00;100.00
47366;BME280;33105;47.964;7.982;2023-04-25T13:22:32;96398.28;;;9.84;100.00
47366;BME280;33105;47.964;7.982;2023-04-25T13:25:33;96397.09;;;9.60;100.00
47366;BME280;33105;47.964;7.982;2023-04-25T13:28:35;96390.66;;;9.91;100.00
47366;BME280;33105;47.964;7.982;2023-04-25T13:31:36;96384.75;;;10.09;100.00
47366;BME280;33105;47.964;7.982;2023-04-25T13:34:37;96384.63;;;9.79;100.00
47366;BME280;33105;47.964;7.982;2023-04-25T13:37:38;96380.75;;;9.65;100.00
47366;BME280;33105;47.964;7.982;2023-04-25T13:40:40;96384.59;;;9.27;100.00
47366;BME280;33105;47.964;7.982;2023-04-25T13:43:41;96370.84;;;9.53;100.00
47366;BME280;33105;47.964;7.982;2023-04-25T13:46:42;96380.88;;;9.43;100.00
47366;BME280;33105;47.964;7.982;2023-04-25T13:49:43;96379.63;;;9.18;100.00
47366;BME280;33105;47.964;7.982;2023-04-25T13:52:45;96406.53;;;8.46;100.00
47366;BME280;33105;47.964;7.982;2023-04-25T13:55:46;96415.19;;;7.72;100.00
47366;BME280;33105;47.964;7.982;2023-04-25T13:58:47;96423.81;;;7.47;100.00
47366;BME280;33105;47.964;7.982;2023-04-25T14:01:48;96427.50;;;7.03;100.00
47366;BME280;33105;47.964;7.982;2023-04-25T14:04:50;96426.16;;;7.22;100.00
47366;BME280;33105;47.964;7.982;2023-04-25T14:07:51;96429.78;;;7.28;100.00
47366;BME280;33105;47.964;7.982;2023-04-25T14:10:52;96435.00;;;7.12;100.00
47366;BME280;33105;47.964;7.982;2023-04-25T14:13:53;96450.53;;;7.34;100.00
47366;BME280;33105;47.964;7.982;2023-04-25T14:16:54;96445.13;;;7.56;100.00
47366;BME280;33105;47.964;7.982;2023-04-25T14:19:57;96441.94;;;7.59;100.00
47366;BME280;33105;47.964;7.982;2023-04-25T14:22:59;96451.19;;;8.01;100.00
47366;BME280;33105;47.964;7.982;2023-04-25T14:26:00;96452.31;;;8.27;100.00
47366;BME280;33105;47.964;7.982;2023-04-25T14:29:02;96455.94;;;8.11;100.00
47366;BME280;33105;47.964;7.982;2023-04-25T14:32:03;96442.44;;;8.70;100.00
47366;BME280;33105;47.964;7.982;2023-04-25T14:35:06;96426.53;;;9.20;100.00
47366;BME280;33105;47.964;7.982;2023-04-25T14:38:08;96422.53;;;9.33;100.00
47366;BME280;33105;47.964;7.982;2023-04-25T14:41:09;96419.13;;;9.16;100.00
47366;BME280;33105;47.964;7.982;2023-04-25T14:44:11;96419.31;;;9.36;100.00
47366;BME280;33105;47.964;7.982;2023-04-25T14:47:12;96423.59;;;8.90;100.00
47366;BME280;33105;47.964;7.982;2023-04-25T14:50:14;96420.19;;;9.10;100.00
47366;BME280;33105;47.964;7.982;2023-04-25T14:53:15;96423.78;;;9.15;100.00
47366;BME280;33105;47.964;7.982;2023-04-25T14:56:16;96421.69;;;8.96;100.00
47366;BME280;33105;47.964;7.982;2023-04-25T14:59:17;96429.56;;;8.60;100.00
47366;BME280;33105;47.964;7.982;2023-04-25T15:02:19;96430.22;;;8.45;100.00
47366;BME280;33105;47.964;7.982;2023-04-25T15:05:20;96431.81;;;8.41;100.00
47366;BME280;33105;47.964;7.982;2023-04-25T15:08:21;96433.19;;;8.44;100.00
47366;BME280;33105;47.964;7.982;2023-04-25T15:11:22;96434.66;;;8.30;100.00
47366;BME280;33105;47.964;7.982;2023-04-25T15:14:23;96430.00;;;8.52;100.00
47366;BME280;33105;47.964;7.982;2023-04-25T15:17:25;96426.19;;;8.80;100.00
47366;BME280;33105;47.964;7.982;2023-04-25T15:20:26;96432.53;;;8.85;100.00
47366;BME280;33105;47.964;7.982;2023-04-25T15:23:28;96448.50;;;8.50;100.00
47366;BME280;33105;47.964;7.982;2023-04-25T15:26:29;96442.69;;;8.41;94.05
47366;BME280;33105;47.964;7.982;2023-04-25T15:29:31;96445.22;;;8.48;93.63
47366;BME280;33105;47.964;7.982;2023-04-25T15:32:34;96462.69;;;8.30;94.12
47366;BME280;33105;47.964;7.982;2023-04-25T15:35:35;96464.59;;;7.86;94.38
47366;BME280;33105;47.964;7.982;2023-04-25T15:38:36;96476.78;;;7.28;95.76
47366;BME280;33105;47.964;7.982;2023-04-25T15:41:37;96474.31;;;7.27;96.87
47366;BME280;33105;47.964;7.982;2023-04-25T15:44:39;96492.69;;;7.03;95.69
47366;BME280;33105;47.964;7.982;2023-04-25T15:47:40;96490.88;;;6.92;96.79
47366;BME280;33105;47.964;7.982;2023-04-25T15:50:41;96498.28;;;7.13;98.48
47366;BME280;33105;47.964;7.982;2023-04-25T15:53:43;96505.53;;;7.58;96.78
47366;BME280;33105;47.964;7.982;2023-04-25T15:56:44;96502.09;;;7.67;96.32
47366;BME280;33105;47.964;7.982;2023-04-25T15:59:47;96504.19;;;7.60;95.45
47366;BME280;33105;47.964;7.982;2023-04-25T16:02:48;96507.31;;;7.69;94.85
47366;BME280;33105;47.964;7.982;2023-04-25T16:05:50;96504.53;;;7.64;96.96
47366;BME280;33105;47.964;7.982;2023-04-25T16:08:51;96501.84;;;7.69;97.29
47366;BME280;33105;47.964;7.982;2023-04-25T16:11:52;96511.03;;;7.63;97.80
47366;BME280;33105;47.964;7.982;2023-04-25T16:14:54;96499.72;;;7.71;97.33
47366;BME280;33105;47.964;7.982;2023-04-25T16:17:56;96505.09;;;7.66;93.26
47366;BME280;33105;47.964;7.982;2023-04-25T16:20:57;96515.41;;;7.47;95.87
47366;BME280;33105;47.964;7.982;2023-04-25T16:23:58;96516.97;;;7.60;93.58
47366;BME280;33105;47.964;7.982;2023-04-25T16:26:59;96520.13;;;7.35;94.01
47366;BME280;33105;47.964;7.982;2023-04-25T16:30:01;96514.66;;;7.51;93.29